createdAt,value
2022-08-07T00:00:49.228Z,15.17
2022-08-07T00:02:36.495Z,15.17
2022-08-07T00:03:17.181Z,15.18
2022-08-07T00:04:24.702Z,15.18
2022-08-07T00:05:30.672Z,15.18
2022-08-07T00:06:35.209Z,15.16
2022-08-07T00:07:40.603Z,15.17
2022-08-07T00:08:44.638Z,15.18
2022-08-07T00:10:04.708Z,15.19
2022-08-07T00:11:11.384Z,15.18
2022-08-07T00:12:19.197Z,15.19
2022-08-07T00:13:23.973Z,15.20
2022-08-07T00:14:31.650Z,15.21
2022-08-07T00:15:36.049Z,15.21
2022-08-07T00:16:41.794Z,15.23
2022-08-07T00:17:45.641Z,15.22
2022-08-07T00:18:52.246Z,15.24
2022-08-07T00:20:02.517Z,15.24
2022-08-07T00:21:56.148Z,15.24
2022-08-07T00:22:35.176Z,15.22
2022-08-07T00:23:41.061Z,15.22
2022-08-07T00:24:44.361Z,15.23
2022-08-07T00:25:59.086Z,15.24
2022-08-07T00:27:07.270Z,15.24
2022-08-07T00:28:12.427Z,15.24
2022-08-07T00:29:20.067Z,15.25
2022-08-07T00:30:28.576Z,15.26
2022-08-07T00:31:37.965Z,15.22
2022-08-07T00:32:44.554Z,15.26
2022-08-07T00:33:48.568Z,15.26
2022-08-07T00:34:55.266Z,15.26
2022-08-07T00:35:58.597Z,15.27
2022-08-07T00:37:05.047Z,15.28
2022-08-07T00:38:08.506Z,15.29
2022-08-07T00:39:17.164Z,15.29
2022-08-07T00:40:39.210Z,15.30
2022-08-07T00:42:02.064Z,15.30
2022-08-07T00:44:01.433Z,15.30
2022-08-07T00:44:38.404Z,15.29
2022-08-07T00:45:46.447Z,15.30
2022-08-07T00:46:51.094Z,15.30
2022-08-07T00:48:08.187Z,15.31
2022-08-07T00:50:16.774Z,15.31
2022-08-07T00:50:50.929Z,15.31
2022-08-07T00:51:57.348Z,15.31
2022-08-07T00:53:01.836Z,15.32
2022-08-07T00:54:05.763Z,15.33
2022-08-07T00:55:10.613Z,15.28
2022-08-07T00:56:15.885Z,15.27
2022-08-07T00:57:19.479Z,15.27
2022-08-07T00:58:22.812Z,15.27
2022-08-07T00:59:32.710Z,15.28
2022-08-07T01:00:38.808Z,15.28
2022-08-07T01:01:57.994Z,15.28
2022-08-07T01:03:01.418Z,15.29
2022-08-07T01:04:07.315Z,15.31
2022-08-07T01:05:18.850Z,15.32
2022-08-07T01:06:22.735Z,15.32
2022-08-07T01:07:28.089Z,15.32
2022-08-07T01:08:32.976Z,15.29
2022-08-07T01:10:05.125Z,15.34
2022-08-07T01:11:00.691Z,15.34
2022-08-07T01:12:29.690Z,15.32
2022-08-07T01:13:35.173Z,15.32
2022-08-07T01:14:41.272Z,15.30
2022-08-07T01:16:01.031Z,15.28
2022-08-07T01:17:09.649Z,15.24
2022-08-07T01:18:16.628Z,15.22
2022-08-07T01:19:21.908Z,15.20
2022-08-07T01:20:33.877Z,15.19
2022-08-07T01:21:49.514Z,15.16
2022-08-07T01:23:09.027Z,15.14
2022-08-07T01:24:21.264Z,15.10
2022-08-07T01:25:54.277Z,15.15
2022-08-07T01:26:51.858Z,15.13
2022-08-07T01:27:56.719Z,15.13
2022-08-07T01:29:03.099Z,15.13
2022-08-07T01:30:10.851Z,15.13
2022-08-07T01:31:17.858Z,15.13
2022-08-07T01:32:22.299Z,15.11
2022-08-07T01:33:30.122Z,15.11
2022-08-07T01:34:50.706Z,15.09
2022-08-07T01:36:06.224Z,15.10
2022-08-07T01:37:13.847Z,15.09
2022-08-07T01:38:25.138Z,15.09
2022-08-07T01:39:41.350Z,15.09
2022-08-07T01:40:51.423Z,15.09
2022-08-07T01:42:37.993Z,15.09
2022-08-07T01:43:19.674Z,15.08
2022-08-07T01:44:23.077Z,15.08
2022-08-07T01:45:37.144Z,15.08
2022-08-07T01:46:45.031Z,15.07
2022-08-07T01:48:20.175Z,15.06
2022-08-07T01:49:15.516Z,15.04
2022-08-07T01:50:22.746Z,15.04
2022-08-07T01:52:01.960Z,15.05
2022-08-07T01:52:58.576Z,15.03
2022-08-07T01:54:12.299Z,15.03
2022-08-07T01:55:22.209Z,15.04
2022-08-07T01:56:32.844Z,15.05
2022-08-07T01:58:06.944Z,15.04
2022-08-07T01:59:30.964Z,15.04
2022-08-07T02:00:45.267Z,14.98
2022-08-07T02:02:06.015Z,15.01
2022-08-07T02:03:21.320Z,14.98
2022-08-07T02:04:55.806Z,15.00
2022-08-07T02:06:20.020Z,14.98
2022-08-07T02:07:44.689Z,14.97
2022-08-07T02:08:54.163Z,14.97
2022-08-07T02:09:59.252Z,14.94
2022-08-07T02:11:04.400Z,14.94
2022-08-07T02:12:17.625Z,14.88
2022-08-07T02:13:56.415Z,14.96
2022-08-07T02:14:52.973Z,14.91
2022-08-07T02:16:00.498Z,14.90
2022-08-07T02:17:06.168Z,14.90
2022-08-07T02:18:14.293Z,14.91
2022-08-07T02:20:04.819Z,14.89
2022-08-07T02:20:52.021Z,14.87
2022-08-07T02:22:02.746Z,14.84
2022-08-07T02:23:07.904Z,14.82
2022-08-07T02:24:13.527Z,14.82
2022-08-07T02:26:10.770Z,14.82
2022-08-07T02:26:49.174Z,14.80
2022-08-07T02:27:53.170Z,14.79
2022-08-07T02:28:57.904Z,14.80
2022-08-07T02:30:03.907Z,14.80
2022-08-07T02:31:28.798Z,14.81
2022-08-07T02:32:36.421Z,14.79
2022-08-07T02:34:01.705Z,14.79
2022-08-07T02:35:09.348Z,14.77
2022-08-07T02:36:30.917Z,14.77
2022-08-07T02:37:43.848Z,14.75
2022-08-07T02:38:50.644Z,14.74
2022-08-07T02:40:29.793Z,14.74
2022-08-07T02:41:33.333Z,14.71
2022-08-07T02:42:41.847Z,14.64
2022-08-07T02:43:47.653Z,14.69
2022-08-07T02:44:53.949Z,14.67
2022-08-07T02:46:03.815Z,14.66
2022-08-07T02:47:08.262Z,14.65
2022-08-07T02:48:23.253Z,14.59
2022-08-07T02:49:28.633Z,14.63
2022-08-07T02:50:54.906Z,14.58
2022-08-07T02:52:01.799Z,14.60
2022-08-07T02:53:12.310Z,14.61
2022-08-07T02:54:18.063Z,14.60
2022-08-07T02:55:28.645Z,14.61
2022-08-07T02:56:52.222Z,14.58
2022-08-07T02:57:59.785Z,14.58
2022-08-07T02:59:08.855Z,14.57
2022-08-07T03:00:16.227Z,14.57
2022-08-07T03:01:35.443Z,14.58
2022-08-07T03:02:55.014Z,14.58
2022-08-07T03:04:03.326Z,14.57
2022-08-07T03:05:11.985Z,14.56
2022-08-07T03:06:33.312Z,14.55
2022-08-07T03:07:43.253Z,14.57
2022-08-07T03:09:07.769Z,14.57
2022-08-07T03:10:20.268Z,14.58
2022-08-07T03:11:28.209Z,14.59
2022-08-07T03:12:32.830Z,14.60
2022-08-07T03:13:39.185Z,14.57
2022-08-07T03:14:53.978Z,14.62
2022-08-07T03:15:58.358Z,14.62
2022-08-07T03:17:04.478Z,14.63
2022-08-07T03:18:08.576Z,14.63
2022-08-07T03:19:12.453Z,14.63
2022-08-07T03:20:17.528Z,14.64
2022-08-07T03:21:21.069Z,14.63
2022-08-07T03:22:30.200Z,14.63
2022-08-07T03:24:25.892Z,14.61
2022-08-07T03:25:02.114Z,14.53
2022-08-07T03:26:07.023Z,14.56
2022-08-07T03:27:30.658Z,14.56
2022-08-07T03:28:44.133Z,14.51
2022-08-07T03:29:51.052Z,14.54
2022-08-07T03:31:16.998Z,14.54
2022-08-07T03:32:25.389Z,14.53
2022-08-07T03:33:40.116Z,14.54
2022-08-07T03:35:16.624Z,14.51
2022-08-07T03:36:16.775Z,14.53
2022-08-07T03:37:22.063Z,14.53
2022-08-07T03:38:33.282Z,14.53
2022-08-07T03:39:59.055Z,14.51
2022-08-07T03:41:02.553Z,14.52
2022-08-07T03:42:07.668Z,14.51
2022-08-07T03:43:13.838Z,14.51
2022-08-07T03:44:31.723Z,14.51
2022-08-07T03:45:43.295Z,14.50
2022-08-07T03:47:11.180Z,14.51
2022-08-07T03:48:11.530Z,14.50
2022-08-07T03:49:14.933Z,14.51
2022-08-07T03:50:23.314Z,14.50
2022-08-07T03:51:30.917Z,14.52
2022-08-07T03:52:52.571Z,14.50
2022-08-07T03:54:32.965Z,14.48
2022-08-07T03:55:19.850Z,14.51
2022-08-07T03:56:33.643Z,14.48
2022-08-07T03:58:34.730Z,14.46
2022-08-07T03:59:13.120Z,14.44
2022-08-07T04:00:17.874Z,14.43
2022-08-07T04:01:27.229Z,14.42
2022-08-07T04:02:31.207Z,14.44
2022-08-07T04:03:49.735Z,14.45
2022-08-07T04:04:57.589Z,14.46
2022-08-07T04:06:01.395Z,14.46
2022-08-07T04:07:16.690Z,14.48
2022-08-07T04:08:21.425Z,14.47
2022-08-07T04:09:25.839Z,14.47
2022-08-07T04:10:54.320Z,14.47
2022-08-07T04:12:28.488Z,14.46
2022-08-07T04:14:10.406Z,14.47
2022-08-07T04:14:58.589Z,14.46
2022-08-07T04:16:04.028Z,14.45
2022-08-07T04:17:20.207Z,14.43
2022-08-07T04:18:56.327Z,14.41
2022-08-07T04:19:51.996Z,14.39
2022-08-07T04:20:57.565Z,14.37
2022-08-07T04:22:08.653Z,14.34
2022-08-07T04:23:20.739Z,14.33
2022-08-07T04:24:34.195Z,14.29
2022-08-07T04:25:43.438Z,14.27
2022-08-07T04:26:46.677Z,14.25
2022-08-07T04:27:59.334Z,14.23
2022-08-07T04:29:06.362Z,14.21
2022-08-07T04:30:35.756Z,14.19
2022-08-07T04:32:03.052Z,14.16
2022-08-07T04:33:10.396Z,14.14
2022-08-07T04:34:24.328Z,14.14
2022-08-07T04:35:40.286Z,14.11
2022-08-07T04:36:45.350Z,14.12
2022-08-07T04:38:02.994Z,14.12
2022-08-07T04:39:10.994Z,14.10
2022-08-07T04:40:16.094Z,14.10
2022-08-07T04:41:22.990Z,14.09
2022-08-07T04:42:30.039Z,14.08
2022-08-07T04:44:09.846Z,14.08
2022-08-07T04:45:02.824Z,14.06
2022-08-07T04:46:25.824Z,14.07
2022-08-07T04:47:58.767Z,14.07
2022-08-07T04:49:24.658Z,14.05
2022-08-07T04:50:56.638Z,14.05
2022-08-07T04:52:03.531Z,14.05
2022-08-07T04:53:16.460Z,14.05
2022-08-07T04:54:58.104Z,14.05
2022-08-07T04:58:10.698Z,14.05
2022-08-07T04:59:15.839Z,14.04
2022-08-07T05:00:24.291Z,14.05
2022-08-07T05:01:46.963Z,14.07
2022-08-07T05:03:31.251Z,14.11
2022-08-07T05:04:58.500Z,14.12
2022-08-07T05:06:20.088Z,14.16
2022-08-07T05:07:48.489Z,14.19
2022-08-07T05:09:17.604Z,14.23
2022-08-07T05:11:07.473Z,14.27
2022-08-07T05:12:26.881Z,14.31
2022-08-07T05:14:53.106Z,14.38
2022-08-07T05:15:23.137Z,14.41
2022-08-07T05:16:31.850Z,14.43
2022-08-07T05:17:52.391Z,14.48
2022-08-07T05:19:03.967Z,14.55
2022-08-07T05:20:09.928Z,14.62
2022-08-07T05:21:14.966Z,14.65
2022-08-07T05:22:27.589Z,14.70
2022-08-07T05:23:37.778Z,14.75
2022-08-07T05:24:42.164Z,14.80
2022-08-07T05:26:10.435Z,14.82
2022-08-07T05:28:02.894Z,14.87
2022-08-07T05:28:46.662Z,14.88
2022-08-07T05:29:53.718Z,14.90
2022-08-07T05:31:00.193Z,14.92
2022-08-07T05:32:06.520Z,14.96
2022-08-07T05:33:13.755Z,14.99
2022-08-07T05:34:20.268Z,15.00
2022-08-07T05:35:33.158Z,15.00
2022-08-07T05:36:39.355Z,15.01
2022-08-07T05:37:43.429Z,15.03
2022-08-07T05:39:00.370Z,15.05
2022-08-07T05:40:18.769Z,15.05
2022-08-07T05:41:23.517Z,15.05
2022-08-07T05:42:34.759Z,15.09
2022-08-07T05:43:49.622Z,15.11
2022-08-07T05:45:25.664Z,15.09
2022-08-07T05:46:31.522Z,15.03
2022-08-07T05:47:38.391Z,15.01
2022-08-07T05:49:00.133Z,14.97
2022-08-07T05:50:04.238Z,14.96
2022-08-07T05:51:15.503Z,14.89
2022-08-07T05:52:29.885Z,14.93
2022-08-07T05:54:12.423Z,14.93
2022-08-07T05:55:06.831Z,14.93
2022-08-07T05:56:20.004Z,14.87
2022-08-07T05:57:38.047Z,14.80
2022-08-07T05:58:52.348Z,14.78
2022-08-07T05:59:58.357Z,14.78
2022-08-07T06:01:02.228Z,14.74
2022-08-07T06:02:15.973Z,14.73
2022-08-07T06:03:24.309Z,14.70
2022-08-07T06:04:33.814Z,14.73
2022-08-07T06:05:38.248Z,14.76
2022-08-07T06:06:46.410Z,14.78
2022-08-07T06:08:13.961Z,14.79
2022-08-07T06:09:18.016Z,14.80
2022-08-07T06:10:24.094Z,14.80
2022-08-07T06:11:27.464Z,14.83
2022-08-07T06:12:33.186Z,14.85
2022-08-07T06:14:10.820Z,14.89
2022-08-07T06:15:05.627Z,14.89
2022-08-07T06:16:13.385Z,14.93
2022-08-07T06:17:22.325Z,14.93
2022-08-07T06:18:27.938Z,14.98
2022-08-07T06:19:49.890Z,14.97
2022-08-07T06:22:14.542Z,14.99
2022-08-07T06:22:27.177Z,14.99
2022-08-07T06:24:37.079Z,14.99
2022-08-07T06:25:01.150Z,15.00
2022-08-07T06:26:06.834Z,15.04
2022-08-07T06:27:12.737Z,15.05
2022-08-07T06:28:27.553Z,15.04
2022-08-07T06:29:31.656Z,15.05
2022-08-07T06:30:41.466Z,15.05
2022-08-07T06:31:50.292Z,15.07
2022-08-07T06:32:53.874Z,15.08
2022-08-07T06:33:57.959Z,15.10
2022-08-07T06:35:01.729Z,15.14
2022-08-07T06:36:14.256Z,15.23
2022-08-07T06:37:44.012Z,15.57
2022-08-07T06:38:58.765Z,15.80
2022-08-07T06:40:20.518Z,16.19
2022-08-07T06:42:01.601Z,16.48
2022-08-07T06:42:54.353Z,16.75
2022-08-07T06:43:59.504Z,16.88
2022-08-07T06:45:18.306Z,17.08
2022-08-07T06:46:31.319Z,17.15
2022-08-07T06:47:57.647Z,17.26
2022-08-07T06:49:03.827Z,17.41
2022-08-07T06:50:11.352Z,17.53
2022-08-07T06:51:31.156Z,17.67
2022-08-07T06:52:39.659Z,17.86
2022-08-07T06:55:27.691Z,17.97
2022-08-07T06:55:32.353Z,18.02
2022-08-07T06:56:48.471Z,17.92
2022-08-07T06:57:57.088Z,17.82
2022-08-07T07:00:12.029Z,17.90
2022-08-07T07:00:45.340Z,18.08
2022-08-07T07:01:51.121Z,18.23
2022-08-07T07:02:57.643Z,18.36
2022-08-07T07:04:28.080Z,18.54
2022-08-07T07:06:02.762Z,18.73
2022-08-07T07:07:00.398Z,18.90
2022-08-07T07:08:06.945Z,19.05
2022-08-07T07:09:21.005Z,19.17
2022-08-07T07:10:31.092Z,19.22
2022-08-07T07:12:07.483Z,19.35
2022-08-07T07:13:15.014Z,19.49
2022-08-07T07:14:22.078Z,19.58
2022-08-07T07:15:35.778Z,19.71
2022-08-07T07:16:50.022Z,19.81
2022-08-07T07:18:08.977Z,19.93
2022-08-07T07:19:55.948Z,20.05
2022-08-07T07:20:53.747Z,20.15
2022-08-07T07:22:05.191Z,20.20
2022-08-07T07:24:09.622Z,20.12
2022-08-07T07:24:56.688Z,20.01
2022-08-07T07:26:34.279Z,20.08
2022-08-07T07:27:35.630Z,19.98
2022-08-07T07:29:38.555Z,19.93
2022-08-07T07:30:37.863Z,19.98
2022-08-07T07:31:49.332Z,20.11
2022-08-07T07:32:55.604Z,20.23
2022-08-07T07:34:05.232Z,20.32
2022-08-07T07:35:12.034Z,20.32
2022-08-07T07:36:17.186Z,20.26
2022-08-07T07:37:44.407Z,20.19
2022-08-07T07:38:47.598Z,20.02
2022-08-07T07:39:55.619Z,19.99
2022-08-07T07:41:03.213Z,19.98
2022-08-07T07:42:14.018Z,19.93
2022-08-07T07:43:27.706Z,19.98
2022-08-07T07:44:49.668Z,20.06
2022-08-07T07:46:40.244Z,20.17
2022-08-07T07:47:23.771Z,20.37
2022-08-07T07:48:35.980Z,20.42
2022-08-07T07:50:35.014Z,20.66
2022-08-07T07:51:07.863Z,20.90
2022-08-07T07:52:13.737Z,21.02
2022-08-07T07:53:25.619Z,21.00
2022-08-07T07:54:31.025Z,21.01
2022-08-07T07:55:45.752Z,21.12
2022-08-07T07:56:59.982Z,21.16
2022-08-07T07:58:05.580Z,21.14
2022-08-07T07:59:11.004Z,21.10
2022-08-07T08:00:28.805Z,21.17
2022-08-07T08:02:03.857Z,21.19
2022-08-07T08:03:16.551Z,21.11
2022-08-07T08:04:36.320Z,21.10
2022-08-07T08:05:50.519Z,21.03
2022-08-07T08:07:00.730Z,20.97
2022-08-07T08:08:33.994Z,20.82
2022-08-07T08:09:52.525Z,20.63
2022-08-07T08:11:03.886Z,20.51
2022-08-07T08:12:08.643Z,20.41
2022-08-07T08:13:15.062Z,20.40
2022-08-07T08:14:24.274Z,20.38
2022-08-07T08:15:58.117Z,20.27
2022-08-07T08:17:56.706Z,20.27
2022-08-07T08:18:25.715Z,20.22
2022-08-07T08:20:18.222Z,20.16
2022-08-07T08:21:00.638Z,20.09
2022-08-07T08:22:32.692Z,20.11
2022-08-07T08:23:57.239Z,20.16
2022-08-07T08:25:41.830Z,20.23
2022-08-07T08:27:09.216Z,20.16
2022-08-07T08:28:24.124Z,20.09
2022-08-07T08:29:54.524Z,19.97
2022-08-07T08:31:01.687Z,19.96
2022-08-07T08:32:18.663Z,20.12
2022-08-07T08:33:33.086Z,20.19
2022-08-07T08:34:40.211Z,20.22
2022-08-07T08:35:50.617Z,20.16
2022-08-07T08:36:58.380Z,20.17
2022-08-07T08:38:04.901Z,20.17
2022-08-07T08:39:09.641Z,20.15
2022-08-07T08:40:32.627Z,20.17
2022-08-07T08:41:58.853Z,20.21
2022-08-07T08:43:13.010Z,20.22
2022-08-07T08:44:37.211Z,20.20
2022-08-07T08:46:06.842Z,20.18
2022-08-07T08:47:31.269Z,20.17
2022-08-07T08:49:19.058Z,20.11
2022-08-07T08:50:45.703Z,20.12
2022-08-07T08:52:13.766Z,20.09
2022-08-07T08:53:25.915Z,20.12
2022-08-07T08:54:55.987Z,20.15
2022-08-07T08:56:10.461Z,20.18
2022-08-07T08:57:38.040Z,20.22
2022-08-07T08:58:54.307Z,20.21
2022-08-07T09:00:05.408Z,20.19
2022-08-07T09:01:40.174Z,20.21
2022-08-07T09:02:58.808Z,20.14
2022-08-07T09:04:15.187Z,20.12
2022-08-07T09:05:37.705Z,20.11
2022-08-07T09:06:50.117Z,20.18
2022-08-07T09:08:11.666Z,20.14
2022-08-07T09:09:56.559Z,20.03
2022-08-07T09:11:13.975Z,20.04
2022-08-07T09:12:53.524Z,20.01
2022-08-07T09:14:13.459Z,19.99
2022-08-07T09:16:22.816Z,20.01
2022-08-07T09:17:28.004Z,20.07
2022-08-07T09:19:51.354Z,20.18
2022-08-07T09:21:13.925Z,20.27
2022-08-07T09:24:32.813Z,20.35
2022-08-07T09:25:00.365Z,20.38
2022-08-07T09:26:33.770Z,20.48
2022-08-07T09:28:00.782Z,20.56
2022-08-07T09:30:06.616Z,20.65
2022-08-07T09:33:57.820Z,20.92
2022-08-07T09:36:04.588Z,21.02
2022-08-07T09:41:14.491Z,21.06
2022-08-07T09:47:42.357Z,21.22
2022-08-07T09:50:35.681Z,21.02
2022-08-07T09:52:15.459Z,21.02
2022-08-07T09:53:16.476Z,20.83
2022-08-07T09:54:35.317Z,20.80
2022-08-07T09:56:03.762Z,20.79
2022-08-07T09:57:30.299Z,20.90
2022-08-07T09:58:48.769Z,21.04
2022-08-07T10:00:14.948Z,21.16
2022-08-07T10:01:53.164Z,21.22
2022-08-07T10:03:08.527Z,21.19
2022-08-07T10:05:12.387Z,21.15
2022-08-07T10:06:48.907Z,21.23
2022-08-07T10:08:02.316Z,21.15
2022-08-07T10:09:58.948Z,21.17
2022-08-07T10:12:01.661Z,21.18
2022-08-07T10:13:15.919Z,21.20
2022-08-07T10:14:54.167Z,21.27
2022-08-07T10:16:31.648Z,21.40
2022-08-07T10:18:16.836Z,21.70
2022-08-07T10:19:32.073Z,21.84
2022-08-07T10:21:00.129Z,22.15
2022-08-07T10:22:45.290Z,22.18
2022-08-07T10:24:11.008Z,22.29
2022-08-07T10:25:24.545Z,22.36
2022-08-07T10:26:53.119Z,22.39
2022-08-07T10:28:15.710Z,22.49
2022-08-07T10:29:51.715Z,22.55
2022-08-07T10:31:15.204Z,22.47
2022-08-07T10:32:59.671Z,22.56
2022-08-07T10:34:27.221Z,22.71
2022-08-07T10:36:10.885Z,22.85
2022-08-07T10:38:00.964Z,23.01
2022-08-07T10:39:41.660Z,22.91
2022-08-07T10:41:51.748Z,22.87
2022-08-07T10:43:34.733Z,22.92
2022-08-07T10:44:57.349Z,22.99
2022-08-07T10:46:15.916Z,23.02
2022-08-07T10:47:55.862Z,22.95
2022-08-07T10:49:16.296Z,22.94
2022-08-07T10:50:52.540Z,22.84
2022-08-07T10:52:13.667Z,22.77
2022-08-07T10:53:44.747Z,22.86
2022-08-07T10:55:01.502Z,22.97
2022-08-07T10:56:05.874Z,23.00
2022-08-07T10:57:33.897Z,23.19
2022-08-07T10:59:00.329Z,23.41
2022-08-07T11:00:08.836Z,23.52
2022-08-07T11:01:51.332Z,23.63
2022-08-07T11:03:14.385Z,23.66
2022-08-07T11:04:56.202Z,23.72
2022-08-07T11:06:22.123Z,23.65
2022-08-07T11:07:59.535Z,23.64
2022-08-07T11:10:09.642Z,23.70
2022-08-07T11:11:01.971Z,23.83
2022-08-07T11:12:14.287Z,23.99
2022-08-07T11:14:42.705Z,23.97
2022-08-07T11:15:09.578Z,24.02
2022-08-07T11:16:36.842Z,24.16
2022-08-07T11:18:12.511Z,24.24
2022-08-07T11:19:38.925Z,24.32
2022-08-07T11:20:50.000Z,24.27
2022-08-07T11:22:32.531Z,24.18
2022-08-07T11:23:59.635Z,23.93
2022-08-07T11:25:23.335Z,23.88
2022-08-07T11:26:50.836Z,23.94
2022-08-07T11:28:16.741Z,23.94
2022-08-07T11:29:43.006Z,23.91
2022-08-07T11:31:27.218Z,23.99
2022-08-07T11:32:46.302Z,24.22
2022-08-07T11:34:04.318Z,24.40
2022-08-07T11:35:11.170Z,24.40
2022-08-07T11:37:00.371Z,24.41
2022-08-07T11:38:50.701Z,24.24
2022-08-07T11:40:19.268Z,24.12
2022-08-07T11:41:31.115Z,24.15
2022-08-07T11:43:06.963Z,24.29
2022-08-07T11:44:32.958Z,24.46
2022-08-07T11:46:12.217Z,24.56
2022-08-07T11:47:39.011Z,24.59
2022-08-07T11:49:50.719Z,24.35
2022-08-07T11:51:03.213Z,24.24
2022-08-07T11:52:29.458Z,24.17
2022-08-07T11:54:00.373Z,24.13
2022-08-07T11:56:25.528Z,24.18
2022-08-07T11:57:50.972Z,24.31
2022-08-07T11:59:01.213Z,24.44
2022-08-07T12:00:28.700Z,24.40
2022-08-07T12:02:00.684Z,24.39
2022-08-07T12:03:05.381Z,24.45
2022-08-07T12:04:34.465Z,24.55
2022-08-07T12:06:37.637Z,24.70
2022-08-07T12:08:03.804Z,24.97
2022-08-07T12:09:25.191Z,25.19
2022-08-07T12:10:41.599Z,25.22
2022-08-07T12:12:10.540Z,25.15
2022-08-07T12:13:37.102Z,25.21
2022-08-07T12:15:01.721Z,25.21
2022-08-07T12:16:28.763Z,25.29
2022-08-07T12:17:59.630Z,25.30
2022-08-07T12:20:03.155Z,25.28
2022-08-07T12:22:36.156Z,25.42
2022-08-07T12:23:09.181Z,25.22
2022-08-07T12:24:37.447Z,25.09
2022-08-07T12:26:40.586Z,25.00
2022-08-07T12:28:09.286Z,24.83
2022-08-07T12:29:21.067Z,24.82
2022-08-07T12:30:46.896Z,24.96
2022-08-07T12:32:38.565Z,25.14
2022-08-07T12:34:01.174Z,25.34
2022-08-07T12:35:09.657Z,25.54
2022-08-07T12:36:16.938Z,25.78
2022-08-07T12:37:23.371Z,26.03
2022-08-07T12:38:39.343Z,26.13
2022-08-07T12:39:51.358Z,25.93
2022-08-07T12:40:57.812Z,25.70
2022-08-07T12:42:02.534Z,25.58
2022-08-07T12:43:09.841Z,25.52
2022-08-07T12:44:17.203Z,25.57
2022-08-07T12:45:26.456Z,25.50
2022-08-07T12:47:06.401Z,25.40
2022-08-07T12:48:41.567Z,25.27
2022-08-07T12:50:38.459Z,25.17
2022-08-07T12:51:51.316Z,25.18
2022-08-07T12:54:03.321Z,25.24
2022-08-07T12:55:41.226Z,25.14
2022-08-07T12:56:58.982Z,25.09
2022-08-07T12:58:03.926Z,25.08
2022-08-07T12:59:20.631Z,25.12
2022-08-07T13:00:50.023Z,25.15
2022-08-07T13:02:33.053Z,24.99
2022-08-07T13:03:59.303Z,24.93
2022-08-07T13:06:03.376Z,24.93
2022-08-07T13:07:00.471Z,24.85
2022-08-07T13:08:46.073Z,24.79
2022-08-07T13:10:20.905Z,24.91
2022-08-07T13:12:03.363Z,24.83
2022-08-07T13:13:48.535Z,24.76
2022-08-07T13:14:59.606Z,24.76
2022-08-07T13:16:27.803Z,24.75
2022-08-07T13:17:57.816Z,24.75
2022-08-07T13:19:34.909Z,24.72
2022-08-07T13:20:53.455Z,24.79
2022-08-07T13:22:19.829Z,24.74
2022-08-07T13:24:01.821Z,24.71
2022-08-07T13:25:54.206Z,24.68
2022-08-07T13:28:12.865Z,24.51
2022-08-07T13:29:16.110Z,24.52
2022-08-07T13:30:39.837Z,24.62
2022-08-07T13:31:57.693Z,24.71
2022-08-07T13:33:03.307Z,24.68
2022-08-07T13:34:33.034Z,24.72
2022-08-07T13:35:59.916Z,24.92
2022-08-07T13:37:23.526Z,25.05
2022-08-07T13:38:49.098Z,25.12
2022-08-07T13:40:35.126Z,25.15
2022-08-07T13:41:48.941Z,25.23
2022-08-07T13:42:54.974Z,25.32
2022-08-07T13:44:02.339Z,25.49
2022-08-07T13:46:07.163Z,25.64
2022-08-07T13:46:41.879Z,25.75
2022-08-07T13:48:06.370Z,25.71
2022-08-07T13:50:35.896Z,25.67
2022-08-07T13:50:44.959Z,25.72
2022-08-07T13:52:31.535Z,25.76
2022-08-07T13:53:59.430Z,25.75
2022-08-07T13:55:11.054Z,25.90
2022-08-07T13:56:36.105Z,26.06
2022-08-07T13:57:59.039Z,26.26
2022-08-07T13:59:30.586Z,26.46
2022-08-07T14:00:39.704Z,26.63
2022-08-07T14:02:12.661Z,26.71
2022-08-07T14:03:34.090Z,26.83
2022-08-07T14:05:01.997Z,26.96
2022-08-07T14:06:06.328Z,27.05
2022-08-07T14:07:11.867Z,27.10
2022-08-07T14:08:16.348Z,27.10
2022-08-07T14:10:15.632Z,27.11
2022-08-07T14:11:14.848Z,27.14
2022-08-07T14:12:30.346Z,26.96
2022-08-07T14:13:37.541Z,26.78
2022-08-07T14:15:40.520Z,26.55
2022-08-07T14:16:49.860Z,26.38
2022-08-07T14:18:23.733Z,26.40
2022-08-07T14:20:42.442Z,26.48
2022-08-07T14:22:00.541Z,26.55
2022-08-07T14:22:45.742Z,26.58
2022-08-07T14:24:00.220Z,26.47
2022-08-07T14:25:12.203Z,26.35
2022-08-07T14:26:28.020Z,26.29
2022-08-07T14:28:10.400Z,26.02
2022-08-07T14:30:04.881Z,25.69
2022-08-07T14:30:33.315Z,25.45
2022-08-07T14:31:43.239Z,25.33
2022-08-07T14:33:04.528Z,25.16
2022-08-07T14:34:10.079Z,25.08
2022-08-07T14:35:43.122Z,25.00
2022-08-07T14:36:55.935Z,24.79
2022-08-07T14:38:03.071Z,24.73
2022-08-07T14:40:17.435Z,24.62
2022-08-07T14:40:55.649Z,24.54
2022-08-07T14:42:20.640Z,24.46
2022-08-07T14:43:56.932Z,24.35
2022-08-07T14:44:59.570Z,24.24
2022-08-07T14:46:04.429Z,24.25
2022-08-07T14:47:14.664Z,24.20
2022-08-07T14:48:27.834Z,24.17
2022-08-07T14:51:15.722Z,24.18
2022-08-07T14:52:27.318Z,24.24
2022-08-07T14:54:05.667Z,24.23
2022-08-07T14:54:59.610Z,24.13
2022-08-07T14:57:58.780Z,23.85
2022-08-07T15:00:33.182Z,23.58
2022-08-07T15:01:42.838Z,23.52
2022-08-07T15:02:56.724Z,23.44
2022-08-07T15:04:06.033Z,23.39
2022-08-07T15:05:20.438Z,23.30
2022-08-07T15:06:47.555Z,23.13
2022-08-07T15:07:53.469Z,22.94
2022-08-07T15:10:35.087Z,22.82
2022-08-07T15:11:53.774Z,22.77
2022-08-07T15:13:25.276Z,22.72
2022-08-07T15:14:30.933Z,22.60
2022-08-07T15:15:57.924Z,22.52
2022-08-07T15:17:05.022Z,22.38
2022-08-07T15:20:32.692Z,22.12
2022-08-07T15:21:58.428Z,21.95
2022-08-07T15:25:16.104Z,21.69
2022-08-07T15:26:03.539Z,21.67
2022-08-07T15:27:11.533Z,21.69
2022-08-07T15:30:09.460Z,21.59
2022-08-07T15:31:12.286Z,21.50
2022-08-07T15:32:51.148Z,21.50
2022-08-07T15:36:00.929Z,21.61
2022-08-07T15:37:07.089Z,21.59
2022-08-07T15:38:30.289Z,21.63
2022-08-07T15:39:57.229Z,21.68
2022-08-07T15:42:42.475Z,21.65
2022-08-07T15:42:43.572Z,21.62
2022-08-07T15:44:12.626Z,21.62
2022-08-07T15:45:56.384Z,21.56
2022-08-07T15:47:09.067Z,21.49
2022-08-07T15:50:37.910Z,21.32
2022-08-07T15:53:07.681Z,21.48
2022-08-07T15:54:16.717Z,21.54
2022-08-07T15:55:21.114Z,21.56
2022-08-07T15:56:38.523Z,21.53
2022-08-07T15:57:51.502Z,21.50
2022-08-07T15:58:59.346Z,21.44
2022-08-07T16:00:06.541Z,21.34
2022-08-07T16:01:22.761Z,21.32
2022-08-07T16:02:46.554Z,21.27
2022-08-07T16:03:54.412Z,21.23
2022-08-07T16:05:15.011Z,21.13
2022-08-07T16:06:32.888Z,21.10
2022-08-07T16:08:30.285Z,21.00
2022-08-07T16:09:44.814Z,20.90
2022-08-07T16:10:55.637Z,20.82
2022-08-07T16:12:06.340Z,20.82
2022-08-07T16:14:07.762Z,20.77
2022-08-07T16:15:55.443Z,20.64
2022-08-07T16:17:15.156Z,20.64
2022-08-07T16:18:50.380Z,20.63
2022-08-07T16:20:33.799Z,20.57
2022-08-07T16:21:56.916Z,20.51
2022-08-07T16:23:53.475Z,20.50
2022-08-07T16:24:57.065Z,20.51
2022-08-07T16:26:08.614Z,20.52
2022-08-07T16:27:40.407Z,20.48
2022-08-07T16:30:06.258Z,20.42
2022-08-07T16:30:31.862Z,20.39
2022-08-07T16:31:58.245Z,20.41
2022-08-07T16:34:02.367Z,20.43
2022-08-07T16:34:52.716Z,20.40
2022-08-07T16:36:31.477Z,20.37
2022-08-07T16:38:04.710Z,20.36
2022-08-07T16:40:05.595Z,20.32
2022-08-07T16:41:09.032Z,20.26
2022-08-07T16:42:15.440Z,20.17
2022-08-07T16:44:02.340Z,20.17
2022-08-07T16:46:34.748Z,20.15
2022-08-07T16:47:12.081Z,20.15
2022-08-07T16:48:28.531Z,20.12
2022-08-07T16:50:34.998Z,20.13
2022-08-07T16:52:50.841Z,20.11
2022-08-07T16:54:02.837Z,20.09
2022-08-07T16:55:15.158Z,20.09
2022-08-07T16:56:53.507Z,20.09
2022-08-07T16:58:02.061Z,20.10
2022-08-07T16:59:44.183Z,20.11
2022-08-07T17:01:41.300Z,20.05
2022-08-07T17:03:06.592Z,19.99
2022-08-07T17:04:15.708Z,19.98
2022-08-07T17:06:29.000Z,19.96
2022-08-07T17:07:55.507Z,19.93
2022-08-07T17:09:14.290Z,19.90
2022-08-07T17:10:55.612Z,19.91
2022-08-07T17:12:35.139Z,19.90
2022-08-07T17:14:18.266Z,19.91
2022-08-07T17:15:20.679Z,19.92
2022-08-07T17:16:24.997Z,19.93
2022-08-07T17:17:46.050Z,19.85
2022-08-07T17:19:01.520Z,19.89
2022-08-07T17:20:20.834Z,19.88
2022-08-07T17:21:28.963Z,19.87
2022-08-07T17:23:16.989Z,19.86
2022-08-07T17:24:42.245Z,19.84
2022-08-07T17:26:31.356Z,19.84
2022-08-07T17:27:51.603Z,19.80
2022-08-07T17:28:57.969Z,19.82
2022-08-07T17:30:14.246Z,19.84
2022-08-07T17:31:34.606Z,19.84